sensor_id;sensor_type;location;lat;lon;timestamp;temperature;humidity
21184;DHT22;18176;49.502;11.754;2022-12-18T00:00:35;-7.20;99.90
21184;DHT22;18176;49.502;11.754;2022-12-18T00:04:39;-7.10;99.90
21184;DHT22;18176;49.502;11.754;2022-12-18T00:08:42;-7.00;99.90
21184;DHT22;18176;49.502;11.754;2022-12-18T00:12:43;-7.00;99.90
21184;DHT22;18176;49.502;11.754;2022-12-18T00:16:44;-6.90;99.90
21184;DHT22;18176;49.502;11.754;2022-12-18T00:20:45;-7.00;99.90
21184;DHT22;18176;49.502;11.754;2022-12-18T00:24:48;-6.90;99.90
21184;DHT22;18176;49.502;11.754;2022-12-18T00:28:48;-6.90;99.90
21184;DHT22;18176;49.502;11.754;2022-12-18T00:36:50;-6.90;99.90
21184;DHT22;18176;49.502;11.754;2022-12-18T00:40:54;-6.90;99.90
21184;DHT22;18176;49.502;11.754;2022-12-18T00:44:54;-6.90;99.90
21184;DHT22;18176;49.502;11.754;2022-12-18T00:48:54;-6.90;99.90
21184;DHT22;18176;49.502;11.754;2022-12-18T00:52:54;-6.90;99.90
21184;DHT22;18176;49.502;11.754;2022-12-18T00:56:57;-6.90;99.90
21184;DHT22;18176;49.502;11.754;2022-12-18T01:00:57;-6.90;99.90
21184;DHT22;18176;49.502;11.754;2022-12-18T01:04:58;-6.90;99.90
21184;DHT22;18176;49.502;11.754;2022-12-18T01:08:58;-6.90;99.90
21184;DHT22;18176;49.502;11.754;2022-12-18T01:13:01;-6.90;99.90
21184;DHT22;18176;49.502;11.754;2022-12-18T01:17:02;-6.90;99.90
21184;DHT22;18176;49.502;11.754;2022-12-18T01:21:06;-6.90;99.90
21184;DHT22;18176;49.502;11.754;2022-12-18T01:25:08;-7.00;99.90
21184;DHT22;18176;49.502;11.754;2022-12-18T01:29:11;-7.00;99.90
21184;DHT22;18176;49.502;11.754;2022-12-18T01:33:11;-7.10;99.90
21184;DHT22;18176;49.502;11.754;2022-12-18T01:37:12;-7.10;99.90
21184;DHT22;18176;49.502;11.754;2022-12-18T01:41:14;-7.20;99.90
21184;DHT22;18176;49.502;11.754;2022-12-18T01:45:30;-7.20;99.90
21184;DHT22;18176;49.502;11.754;2022-12-18T01:49:31;-7.30;99.90
21184;DHT22;18176;49.502;11.754;2022-12-18T01:53:32;-7.30;99.90
21184;DHT22;18176;49.502;11.754;2022-12-18T01:57:33;-7.30;99.90
21184;DHT22;18176;49.502;11.754;2022-12-18T02:01:37;-7.30;99.90
21184;DHT22;18176;49.502;11.754;2022-12-18T02:05:44;-7.30;99.90
21184;DHT22;18176;49.502;11.754;2022-12-18T02:09:50;-7.30;99.90
21184;DHT22;18176;49.502;11.754;2022-12-18T02:14:04;-7.20;99.90
21184;DHT22;18176;49.502;11.754;2022-12-18T02:18:21;-7.30;99.90
21184;DHT22;18176;49.502;11.754;2022-12-18T02:22:28;-7.20;99.90
21184;DHT22;18176;49.502;11.754;2022-12-18T02:26:40;-7.20;99.90
21184;DHT22;18176;49.502;11.754;2022-12-18T02:30:48;-7.20;99.90
21184;DHT22;18176;49.502;11.754;2022-12-18T02:34:51;-7.20;99.90
21184;DHT22;18176;49.502;11.754;2022-12-18T02:38:58;-7.20;99.90
21184;DHT22;18176;49.502;11.754;2022-12-18T02:43:11;-7.20;99.90
21184;DHT22;18176;49.502;11.754;2022-12-18T02:47:14;-7.20;99.90
21184;DHT22;18176;49.502;11.754;2022-12-18T02:51:21;-7.10;99.90
21184;DHT22;18176;49.502;11.754;2022-12-18T02:55:40;-7.10;99.90
21184;DHT22;18176;49.502;11.754;2022-12-18T03:00:00;-7.10;99.90
21184;DHT22;18176;49.502;11.754;2022-12-18T03:04:08;-7.10;99.90
21184;DHT22;18176;49.502;11.754;2022-12-18T03:08:18;-7.20;99.90
21184;DHT22;18176;49.502;11.754;2022-12-18T03:12:27;-7.20;99.90
21184;DHT22;18176;49.502;11.754;2022-12-18T03:16:34;-7.30;99.90
21184;DHT22;18176;49.502;11.754;2022-12-18T03:20:37;-7.40;99.90
21184;DHT22;18176;49.502;11.754;2022-12-18T03:24:46;-7.30;99.90
21184;DHT22;18176;49.502;11.754;2022-12-18T03:28:51;-7.30;99.90
21184;DHT22;18176;49.502;11.754;2022-12-18T03:33:02;-7.30;99.90
21184;DHT22;18176;49.502;11.754;2022-12-18T03:37:11;-7.30;99.90
21184;DHT22;18176;49.502;11.754;2022-12-18T03:41:18;-7.30;99.90
21184;DHT22;18176;49.502;11.754;2022-12-18T03:45:54;-7.30;99.90
21184;DHT22;18176;49.502;11.754;2022-12-18T03:50:11;-7.40;99.90
21184;DHT22;18176;49.502;11.754;2022-12-18T03:54:18;-7.40;99.90
21184;DHT22;18176;49.502;11.754;2022-12-18T03:58:27;-7.30;99.90
21184;DHT22;18176;49.502;11.754;2022-12-18T04:02:44;-7.30;99.90
21184;DHT22;18176;49.502;11.754;2022-12-18T04:06:56;-7.30;99.90
21184;DHT22;18176;49.502;11.754;2022-12-18T04:10:57;-7.20;99.90
21184;DHT22;18176;49.502;11.754;2022-12-18T04:14:58;-7.20;99.90
21184;DHT22;18176;49.502;11.754;2022-12-18T04:18:59;-7.30;99.90
21184;DHT22;18176;49.502;11.754;2022-12-18T04:23:07;-7.20;99.90
21184;DHT22;18176;49.502;11.754;2022-12-18T04:27:08;-7.20;99.90
21184;DHT22;18176;49.502;11.754;2022-12-18T04:31:13;-7.30;99.90
21184;DHT22;18176;49.502;11.754;2022-12-18T04:35:14;-7.20;99.90
21184;DHT22;18176;49.502;11.754;2022-12-18T04:39:17;-7.30;99.90
21184;DHT22;18176;49.502;11.754;2022-12-18T04:43:19;-7.20;99.90
21184;DHT22;18176;49.502;11.754;2022-12-18T04:47:20;-7.10;99.90
21184;DHT22;18176;49.502;11.754;2022-12-18T04:51:20;-7.00;99.90
21184;DHT22;18176;49.502;11.754;2022-12-18T04:55:28;-7.00;99.90
21184;DHT22;18176;49.502;11.754;2022-12-18T04:59:28;-7.00;99.90
21184;DHT22;18176;49.502;11.754;2022-12-18T05:03:28;-7.00;99.90
21184;DHT22;18176;49.502;11.754;2022-12-18T05:07:29;-6.90;99.90
21184;DHT22;18176;49.502;11.754;2022-12-18T05:11:32;-6.90;99.90
21184;DHT22;18176;49.502;11.754;2022-12-18T05:15:32;-6.80;99.90
21184;DHT22;18176;49.502;11.754;2022-12-18T05:19:33;-6.80;99.90
21184;DHT22;18176;49.502;11.754;2022-12-18T05:23:34;-6.80;99.90
21184;DHT22;18176;49.502;11.754;2022-12-18T05:27:38;-6.80;99.90
21184;DHT22;18176;49.502;11.754;2022-12-18T05:31:38;-6.70;99.90
21184;DHT22;18176;49.502;11.754;2022-12-18T05:35:39;-6.70;99.90
21184;DHT22;18176;49.502;11.754;2022-12-18T05:39:40;-6.60;99.90
21184;DHT22;18176;49.502;11.754;2022-12-18T05:43:44;-6.60;99.90
21184;DHT22;18176;49.502;11.754;2022-12-18T05:47:44;-6.50;99.90
21184;DHT22;18176;49.502;11.754;2022-12-18T05:51:44;-6.40;99.90
21184;DHT22;18176;49.502;11.754;2022-12-18T05:55:45;-6.30;99.90
21184;DHT22;18176;49.502;11.754;2022-12-18T05:59:48;-6.20;99.90
21184;DHT22;18176;49.502;11.754;2022-12-18T06:03:48;-6.10;99.90
21184;DHT22;18176;49.502;11.754;2022-12-18T06:07:49;-6.20;99.90
21184;DHT22;18176;49.502;11.754;2022-12-18T06:11:51;-6.10;99.90
21184;DHT22;18176;49.502;11.754;2022-12-18T06:15:54;-6.10;99.90
21184;DHT22;18176;49.502;11.754;2022-12-18T06:19:54;-6.10;99.90
21184;DHT22;18176;49.502;11.754;2022-12-18T06:23:55;-6.10;99.90
21184;DHT22;18176;49.502;11.754;2022-12-18T06:27:55;-6.10;99.90
21184;DHT22;18176;49.502;11.754;2022-12-18T06:31:58;-6.00;99.90
21184;DHT22;18176;49.502;11.754;2022-12-18T06:36:01;-6.00;99.90
21184;DHT22;18176;49.502;11.754;2022-12-18T06:40:02;-6.00;99.90
21184;DHT22;18176;49.502;11.754;2022-12-18T06:44:03;-5.90;99.90
21184;DHT22;18176;49.502;11.754;2022-12-18T06:48:06;-6.00;99.90
21184;DHT22;18176;49.502;11.754;2022-12-18T06:52:06;-5.90;99.90
21184;DHT22;18176;49.502;11.754;2022-12-18T06:56:07;-5.90;99.90
21184;DHT22;18176;49.502;11.754;2022-12-18T07:00:08;-5.90;99.90
21184;DHT22;18176;49.502;11.754;2022-12-18T07:04:12;-5.90;99.90
21184;DHT22;18176;49.502;11.754;2022-12-18T07:08:12;-5.90;99.90
21184;DHT22;18176;49.502;11.754;2022-12-18T07:12:12;-5.90;99.90
21184;DHT22;18176;49.502;11.754;2022-12-18T07:16:13;-5.90;99.90
21184;DHT22;18176;49.502;11.754;2022-12-18T07:20:23;-5.90;99.90
21184;DHT22;18176;49.502;11.754;2022-12-18T07:24:24;-5.90;99.90
21184;DHT22;18176;49.502;11.754;2022-12-18T07:28:24;-5.90;99.90
21184;DHT22;18176;49.502;11.754;2022-12-18T07:32:24;-5.90;99.90
21184;DHT22;18176;49.502;11.754;2022-12-18T07:36:27;-5.80;99.90
21184;DHT22;18176;49.502;11.754;2022-12-18T07:40:27;-5.80;99.90
21184;DHT22;18176;49.502;11.754;2022-12-18T07:44:27;-5.80;99.90
21184;DHT22;18176;49.502;11.754;2022-12-18T07:48:28;-5.80;99.90
21184;DHT22;18176;49.502;11.754;2022-12-18T07:52:31;-5.70;99.90
21184;DHT22;18176;49.502;11.754;2022-12-18T07:56:31;-5.70;99.90
21184;DHT22;18176;49.502;11.754;2022-12-18T08:00:31;-5.70;99.90
21184;DHT22;18176;49.502;11.754;2022-12-18T08:04:31;-5.70;99.90
21184;DHT22;18176;49.502;11.754;2022-12-18T08:08:34;-5.60;99.90
21184;DHT22;18176;49.502;11.754;2022-12-18T08:12:35;-5.70;99.90
21184;DHT22;18176;49.502;11.754;2022-12-18T08:16:35;-5.50;99.90
21184;DHT22;18176;49.502;11.754;2022-12-18T08:20:36;-5.50;99.90
21184;DHT22;18176;49.502;11.754;2022-12-18T08:24:41;-5.50;99.90
21184;DHT22;18176;49.502;11.754;2022-12-18T08:28:41;-5.50;99.90
21184;DHT22;18176;49.502;11.754;2022-12-18T08:32:42;-5.50;99.90
21184;DHT22;18176;49.502;11.754;2022-12-18T08:36:42;-5.40;99.90
21184;DHT22;18176;49.502;11.754;2022-12-18T08:40:45;-5.30;99.90
21184;DHT22;18176;49.502;11.754;2022-12-18T08:44:45;-5.20;99.90
21184;DHT22;18176;49.502;11.754;2022-12-18T08:48:46;-5.10;99.90
21184;DHT22;18176;49.502;11.754;2022-12-18T08:52:46;-5.00;99.90
21184;DHT22;18176;49.502;11.754;2022-12-18T08:56:49;-5.00;99.90
21184;DHT22;18176;49.502;11.754;2022-12-18T09:00:49;-5.00;99.90
21184;DHT22;18176;49.502;11.754;2022-12-18T09:04:49;-5.00;99.90
21184;DHT22;18176;49.502;11.754;2022-12-18T09:08:53;-5.00;99.90
21184;DHT22;18176;49.502;11.754;2022-12-18T09:12:56;-4.90;99.90
21184;DHT22;18176;49.502;11.754;2022-12-18T09:16:56;-4.90;99.90
21184;DHT22;18176;49.502;11.754;2022-12-18T09:20:56;-4.90;99.90
21184;DHT22;18176;49.502;11.754;2022-12-18T09:24:56;-4.90;99.90
21184;DHT22;18176;49.502;11.754;2022-12-18T09:28:59;-4.90;99.90
21184;DHT22;18176;49.502;11.754;2022-12-18T09:33:00;-4.90;99.90
21184;DHT22;18176;49.502;11.754;2022-12-18T09:37:02;-4.90;99.90
21184;DHT22;18176;49.502;11.754;2022-12-18T09:41:05;-4.90;99.90
21184;DHT22;18176;49.502;11.754;2022-12-18T09:45:28;-4.90;99.90
21184;DHT22;18176;49.502;11.754;2022-12-18T09:49:42;-4.80;99.90
21184;DHT22;18176;49.502;11.754;2022-12-18T09:53:47;-4.60;99.90
21184;DHT22;18176;49.502;11.754;2022-12-18T09:57:54;-4.70;99.90
21184;DHT22;18176;49.502;11.754;2022-12-18T10:02:15;-4.60;99.90
21184;DHT22;18176;49.502;11.754;2022-12-18T10:06:22;-4.50;99.90
21184;DHT22;18176;49.502;11.754;2022-12-18T10:10:32;-4.50;99.90
21184;DHT22;18176;49.502;11.754;2022-12-18T10:14:44;-4.60;99.90
21184;DHT22;18176;49.502;11.754;2022-12-18T10:19:03;-4.70;99.90
21184;DHT22;18176;49.502;11.754;2022-12-18T10:23:24;-4.50;99.90
21184;DHT22;18176;49.502;11.754;2022-12-18T10:27:31;-4.50;99.90
21184;DHT22;18176;49.502;11.754;2022-12-18T10:31:31;-4.40;99.90
21184;DHT22;18176;49.502;11.754;2022-12-18T10:35:35;-4.40;99.90
21184;DHT22;18176;49.502;11.754;2022-12-18T10:39:37;-4.50;99.90
21184;DHT22;18176;49.502;11.754;2022-12-18T10:43:38;-4.40;99.90
21184;DHT22;18176;49.502;11.754;2022-12-18T10:47:43;-4.40;99.90
21184;DHT22;18176;49.502;11.754;2022-12-18T10:51:47;-4.50;99.90
21184;DHT22;18176;49.502;11.754;2022-12-18T10:55:48;-4.40;99.90
21184;DHT22;18176;49.502;11.754;2022-12-18T10:59:52;-4.30;99.90
21184;DHT22;18176;49.502;11.754;2022-12-18T11:04:01;-4.20;99.90
21184;DHT22;18176;49.502;11.754;2022-12-18T11:08:20;-4.20;99.90
21184;DHT22;18176;49.502;11.754;2022-12-18T11:12:22;-4.10;99.90
21184;DHT22;18176;49.502;11.754;2022-12-18T11:16:23;-3.90;99.90
21184;DHT22;18176;49.502;11.754;2022-12-18T11:20:30;-3.80;99.90
21184;DHT22;18176;49.502;11.754;2022-12-18T11:24:36;-4.00;99.90
21184;DHT22;18176;49.502;11.754;2022-12-18T11:28:40;-3.90;99.90
21184;DHT22;18176;49.502;11.754;2022-12-18T11:32:43;-4.00;99.90
21184;DHT22;18176;49.502;11.754;2022-12-18T11:36:47;-3.90;99.90
21184;DHT22;18176;49.502;11.754;2022-12-18T11:40:55;-3.80;99.90
21184;DHT22;18176;49.502;11.754;2022-12-18T11:45:03;-3.70;99.90
21184;DHT22;18176;49.502;11.754;2022-12-18T11:49:22;-3.70;99.90
21184;DHT22;18176;49.502;11.754;2022-12-18T11:53:27;-3.70;99.90
21184;DHT22;18176;49.502;11.754;2022-12-18T11:57:38;-3.70;99.90
21184;DHT22;18176;49.502;11.754;2022-12-18T12:01:51;-3.60;99.90
21184;DHT22;18176;49.502;11.754;2022-12-18T12:06:03;-3.60;99.90
21184;DHT22;18176;49.502;11.754;2022-12-18T12:10:28;-3.60;99.90
21184;DHT22;18176;49.502;11.754;2022-12-18T12:14:47;-3.50;99.90
21184;DHT22;18176;49.502;11.754;2022-12-18T12:19:08;-3.50;99.90
21184;DHT22;18176;49.502;11.754;2022-12-18T12:23:29;-3.60;99.90
21184;DHT22;18176;49.502;11.754;2022-12-18T12:27:42;-3.50;99.90
21184;DHT22;18176;49.502;11.754;2022-12-18T12:32:01;-3.40;99.90
21184;DHT22;18176;49.502;11.754;2022-12-18T12:36:20;-3.20;99.90
21184;DHT22;18176;49.502;11.754;2022-12-18T12:40:41;-3.20;99.90
21184;DHT22;18176;49.502;11.754;2022-12-18T12:44:55;-3.10;99.90
21184;DHT22;18176;49.502;11.754;2022-12-18T12:49:03;-3.20;99.90
21184;DHT22;18176;49.502;11.754;2022-12-18T12:53:17;-3.30;99.90
21184;DHT22;18176;49.502;11.754;2022-12-18T12:57:30;-3.50;99.90
21184;DHT22;18176;49.502;11.754;2022-12-18T13:01:38;-3.60;99.90
21184;DHT22;18176;49.502;11.754;2022-12-18T13:05:54;-3.60;99.90
21184;DHT22;18176;49.502;11.754;2022-12-18T13:14:36;-3.70;99.90
21184;DHT22;18176;49.502;11.754;2022-12-18T13:18:38;-3.60;99.90
21184;DHT22;18176;49.502;11.754;2022-12-18T13:22:44;-3.50;99.90
21184;DHT22;18176;49.502;11.754;2022-12-18T13:26:47;-3.60;99.90
21184;DHT22;18176;49.502;11.754;2022-12-18T13:30:49;-3.70;99.90
21184;DHT22;18176;49.502;11.754;2022-12-18T13:39:40;-3.70;99.90
21184;DHT22;18176;49.502;11.754;2022-12-18T13:43:42;-3.70;99.90
21184;DHT22;18176;49.502;11.754;2022-12-18T13:47:47;-3.80;99.90
21184;DHT22;18176;49.502;11.754;2022-12-18T13:51:50;-3.90;99.90
21184;DHT22;18176;49.502;11.754;2022-12-18T13:55:55;-3.90;99.90
21184;DHT22;18176;49.502;11.754;2022-12-18T13:59:56;-3.90;99.90
21184;DHT22;18176;49.502;11.754;2022-12-18T14:04:09;-4.00;99.90
21184;DHT22;18176;49.502;11.754;2022-12-18T14:08:13;-4.10;99.90
21184;DHT22;18176;49.502;11.754;2022-12-18T14:12:20;-4.10;99.90
21184;DHT22;18176;49.502;11.754;2022-12-18T14:16:35;-4.10;99.90
21184;DHT22;18176;49.502;11.754;2022-12-18T14:20:41;-4.20;99.90
21184;DHT22;18176;49.502;11.754;2022-12-18T14:25:12;-4.20;99.90
21184;DHT22;18176;49.502;11.754;2022-12-18T14:29:24;-4.30;99.90
21184;DHT22;18176;49.502;11.754;2022-12-18T14:33:27;-4.40;99.90
21184;DHT22;18176;49.502;11.754;2022-12-18T14:37:27;-4.50;99.90
21184;DHT22;18176;49.502;11.754;2022-12-18T14:41:28;-4.50;99.90
21184;DHT22;18176;49.502;11.754;2022-12-18T14:45:40;-4.50;99.90
21184;DHT22;18176;49.502;11.754;2022-12-18T14:49:43;-4.60;99.90
21184;DHT22;18176;49.502;11.754;2022-12-18T14:53:46;-4.60;99.90
21184;DHT22;18176;49.502;11.754;2022-12-18T14:57:53;-4.70;99.90
21184;DHT22;18176;49.502;11.754;2022-12-18T15:02:02;-4.70;99.90
21184;DHT22;18176;49.502;11.754;2022-12-18T15:06:23;-4.80;99.90
21184;DHT22;18176;49.502;11.754;2022-12-18T15:10:28;-4.80;99.90
21184;DHT22;18176;49.502;11.754;2022-12-18T15:14:35;-4.90;99.90
21184;DHT22;18176;49.502;11.754;2022-12-18T15:18:42;-4.80;99.90
21184;DHT22;18176;49.502;11.754;2022-12-18T15:22:47;-4.80;99.90
21184;DHT22;18176;49.502;11.754;2022-12-18T15:26:47;-4.90;99.90
21184;DHT22;18176;49.502;11.754;2022-12-18T15:31:20;-5.00;99.90
21184;DHT22;18176;49.502;11.754;2022-12-18T15:35:25;-5.10;99.90
21184;DHT22;18176;49.502;11.754;2022-12-18T15:39:25;-5.20;99.90
21184;DHT22;18176;49.502;11.754;2022-12-18T15:43:26;-5.20;99.90
21184;DHT22;18176;49.502;11.754;2022-12-18T15:47:36;-5.30;99.90
21184;DHT22;18176;49.502;11.754;2022-12-18T15:51:39;-5.50;99.90
21184;DHT22;18176;49.502;11.754;2022-12-18T15:55:42;-5.60;99.90
21184;DHT22;18176;49.502;11.754;2022-12-18T15:59:57;-5.70;99.90
21184;DHT22;18176;49.502;11.754;2022-12-18T16:04:00;-5.90;99.90
21184;DHT22;18176;49.502;11.754;2022-12-18T16:08:03;-6.00;99.90
21184;DHT22;18176;49.502;11.754;2022-12-18T16:12:04;-6.10;99.90
21184;DHT22;18176;49.502;11.754;2022-12-18T16:16:07;-6.10;99.90
21184;DHT22;18176;49.502;11.754;2022-12-18T16:20:12;-6.10;99.90
21184;DHT22;18176;49.502;11.754;2022-12-18T16:24:18;-6.10;99.90
21184;DHT22;18176;49.502;11.754;2022-12-18T16:28:20;-6.20;99.90
21184;DHT22;18176;49.502;11.754;2022-12-18T16:32:21;-6.30;99.90
21184;DHT22;18176;49.502;11.754;2022-12-18T16:36:22;-6.30;99.90
21184;DHT22;18176;49.502;11.754;2022-12-18T16:40:24;-6.50;99.90
21184;DHT22;18176;49.502;11.754;2022-12-18T16:44:25;-6.50;99.90
21184;DHT22;18176;49.502;11.754;2022-12-18T16:48:25;-6.50;99.90
21184;DHT22;18176;49.502;11.754;2022-12-18T16:52:30;-6.70;99.90
21184;DHT22;18176;49.502;11.754;2022-12-18T16:56:33;-6.70;99.90
21184;DHT22;18176;49.502;11.754;2022-12-18T17:00:34;-6.70;99.90
21184;DHT22;18176;49.502;11.754;2022-12-18T17:04:37;-6.70;99.90
21184;DHT22;18176;49.502;11.754;2022-12-18T17:08:37;-6.80;99.90
21184;DHT22;18176;49.502;11.754;2022-12-18T17:12:40;-6.80;99.90
21184;DHT22;18176;49.502;11.754;2022-12-18T17:16:41;-6.80;99.90
21184;DHT22;18176;49.502;11.754;2022-12-18T17:20:41;-6.70;99.90
21184;DHT22;18176;49.502;11.754;2022-12-18T17:24:41;-6.60;99.90
21184;DHT22;18176;49.502;11.754;2022-12-18T17:28:44;-6.60;99.90
21184;DHT22;18176;49.502;11.754;2022-12-18T17:32:44;-6.60;99.90
21184;DHT22;18176;49.502;11.754;2022-12-18T17:36:44;-6.60;99.90
21184;DHT22;18176;49.502;11.754;2022-12-18T17:40:44;-6.60;99.90
21184;DHT22;18176;49.502;11.754;2022-12-18T17:44:49;-6.50;99.90
21184;DHT22;18176;49.502;11.754;2022-12-18T17:48:49;-6.50;99.90
21184;DHT22;18176;49.502;11.754;2022-12-18T17:52:54;-6.50;99.90
21184;DHT22;18176;49.502;11.754;2022-12-18T17:56:54;-6.50;99.90
21184;DHT22;18176;49.502;11.754;2022-12-18T18:01:00;-6.60;99.90
21184;DHT22;18176;49.502;11.754;2022-12-18T18:05:01;-6.70;99.90
21184;DHT22;18176;49.502;11.754;2022-12-18T18:09:01;-6.70;99.90
21184;DHT22;18176;49.502;11.754;2022-12-18T18:13:04;-6.80;99.90
21184;DHT22;18176;49.502;11.754;2022-12-18T18:17:20;-6.90;99.90
21184;DHT22;18176;49.502;11.754;2022-12-18T18:21:20;-7.00;99.90
21184;DHT22;18176;49.502;11.754;2022-12-18T18:25:21;-7.00;99.90
21184;DHT22;18176;49.502;11.754;2022-12-18T18:29:23;-7.00;99.90
21184;DHT22;18176;49.502;11.754;2022-12-18T18:33:28;-7.10;99.90
21184;DHT22;18176;49.502;11.754;2022-12-18T18:37:29;-7.10;99.90
21184;DHT22;18176;49.502;11.754;2022-12-18T18:41:29;-7.20;99.90
21184;DHT22;18176;49.502;11.754;2022-12-18T18:45:30;-7.20;99.90
21184;DHT22;18176;49.502;11.754;2022-12-18T18:49:33;-7.20;99.90
21184;DHT22;18176;49.502;11.754;2022-12-18T18:53:35;-7.20;99.90
21184;DHT22;18176;49.502;11.754;2022-12-18T18:57:37;-7.30;99.90
21184;DHT22;18176;49.502;11.754;2022-12-18T19:01:38;-7.30;99.90
21184;DHT22;18176;49.502;11.754;2022-12-18T19:05:41;-7.40;99.90
21184;DHT22;18176;49.502;11.754;2022-12-18T19:09:43;-7.40;99.90
21184;DHT22;18176;49.502;11.754;2022-12-18T19:13:47;-7.50;99.90
21184;DHT22;18176;49.502;11.754;2022-12-18T19:17:48;-7.50;99.90
21184;DHT22;18176;49.502;11.754;2022-12-18T19:21:51;-7.50;99.90
21184;DHT22;18176;49.502;11.754;2022-12-18T19:25:52;-7.40;99.90
21184;DHT22;18176;49.502;11.754;2022-12-18T19:30:12;-7.50;99.90
21184;DHT22;18176;49.502;11.754;2022-12-18T19:34:12;-7.50;99.90
21184;DHT22;18176;49.502;11.754;2022-12-18T19:38:15;-7.50;99.90
21184;DHT22;18176;49.502;11.754;2022-12-18T19:42:15;-7.60;99.90
21184;DHT22;18176;49.502;11.754;2022-12-18T19:46:25;-7.60;99.90
21184;DHT22;18176;49.502;11.754;2022-12-18T19:50:25;-7.70;99.90
21184;DHT22;18176;49.502;11.754;2022-12-18T19:54:31;-7.70;99.90
21184;DHT22;18176;49.502;11.754;2022-12-18T19:58:31;-7.70;99.90
21184;DHT22;18176;49.502;11.754;2022-12-18T20:02:31;-7.70;99.90
21184;DHT22;18176;49.502;11.754;2022-12-18T20:06:34;-7.70;99.90
21184;DHT22;18176;49.502;11.754;2022-12-18T20:10:47;-7.60;99.90
21184;DHT22;18176;49.502;11.754;2022-12-18T20:14:47;-7.70;99.90
21184;DHT22;18176;49.502;11.754;2022-12-18T20:18:47;-7.60;99.90
21184;DHT22;18176;49.502;11.754;2022-12-18T20:22:48;-7.60;99.90
21184;DHT22;18176;49.502;11.754;2022-12-18T20:26:51;-7.60;99.90
21184;DHT22;18176;49.502;11.754;2022-12-18T20:30:58;-7.60;99.90
21184;DHT22;18176;49.502;11.754;2022-12-18T20:34:58;-7.60;99.90
21184;DHT22;18176;49.502;11.754;2022-12-18T20:39:01;-7.70;99.90
21184;DHT22;18176;49.502;11.754;2022-12-18T20:43:13;-7.70;99.90
21184;DHT22;18176;49.502;11.754;2022-12-18T20:47:17;-7.70;99.90
21184;DHT22;18176;49.502;11.754;2022-12-18T20:51:19;-7.70;99.90
21184;DHT22;18176;49.502;11.754;2022-12-18T20:55:20;-7.80;99.90
21184;DHT22;18176;49.502;11.754;2022-12-18T20:59:23;-7.80;99.90
21184;DHT22;18176;49.502;11.754;2022-12-18T21:03:25;-7.70;99.90
21184;DHT22;18176;49.502;11.754;2022-12-18T21:07:25;-7.80;99.90
21184;DHT22;18176;49.502;11.754;2022-12-18T21:11:28;-7.70;99.90
21184;DHT22;18176;49.502;11.754;2022-12-18T21:15:45;-7.80;99.90
21184;DHT22;18176;49.502;11.754;2022-12-18T21:19:45;-7.70;99.90
21184;DHT22;18176;49.502;11.754;2022-12-18T21:23:46;-7.80;99.90
21184;DHT22;18176;49.502;11.754;2022-12-18T21:27:47;-7.80;99.90
21184;DHT22;18176;49.502;11.754;2022-12-18T21:31:50;-7.80;99.90
21184;DHT22;18176;49.502;11.754;2022-12-18T21:35:51;-7.80;99.90
21184;DHT22;18176;49.502;11.754;2022-12-18T21:39:52;-7.90;99.90
21184;DHT22;18176;49.502;11.754;2022-12-18T21:43:52;-7.80;99.90
21184;DHT22;18176;49.502;11.754;2022-12-18T21:48:07;-7.80;99.90
21184;DHT22;18176;49.502;11.754;2022-12-18T21:52:08;-7.90;99.90
21184;DHT22;18176;49.502;11.754;2022-12-18T21:56:08;-7.90;99.90
21184;DHT22;18176;49.502;11.754;2022-12-18T22:00:11;-7.90;99.90
21184;DHT22;18176;49.502;11.754;2022-12-18T22:04:19;-7.90;99.90
21184;DHT22;18176;49.502;11.754;2022-12-18T22:08:21;-7.90;99.90
21184;DHT22;18176;49.502;11.754;2022-12-18T22:12:21;-7.90;99.90
21184;DHT22;18176;49.502;11.754;2022-12-18T22:16:41;-7.90;99.90
21184;DHT22;18176;49.502;11.754;2022-12-18T22:20:45;-7.90;99.90
21184;DHT22;18176;49.502;11.754;2022-12-18T22:24:45;-7.90;99.90
21184;DHT22;18176;49.502;11.754;2022-12-18T22:28:45;-7.80;99.90
21184;DHT22;18176;49.502;11.754;2022-12-18T22:32:58;-7.80;99.90
21184;DHT22;18176;49.502;11.754;2022-12-18T22:37:00;-7.80;99.90
21184;DHT22;18176;49.502;11.754;2022-12-18T22:41:01;-7.80;99.90
21184;DHT22;18176;49.502;11.754;2022-12-18T22:45:01;-7.70;99.90
21184;DHT22;18176;49.502;11.754;2022-12-18T22:49:01;-7.70;99.90
21184;DHT22;18176;49.502;11.754;2022-12-18T22:53:04;-7.70;99.90
21184;DHT22;18176;49.502;11.754;2022-12-18T22:57:06;-7.70;99.90
21184;DHT22;18176;49.502;11.754;2022-12-18T23:01:17;-7.70;99.90
21184;DHT22;18176;49.502;11.754;2022-12-18T23:05:19;-7.70;99.90
21184;DHT22;18176;49.502;11.754;2022-12-18T23:09:22;-7.70;99.90
21184;DHT22;18176;49.502;11.754;2022-12-18T23:13:22;-7.70;99.90
21184;DHT22;18176;49.502;11.754;2022-12-18T23:17:23;-7.70;99.90
21184;DHT22;18176;49.502;11.754;2022-12-18T23:21:23;-7.70;99.90
21184;DHT22;18176;49.502;11.754;2022-12-18T23:25:27;-7.70;99.90
21184;DHT22;18176;49.502;11.754;2022-12-18T23:29:27;-7.70;99.90
21184;DHT22;18176;49.502;11.754;2022-12-18T23:33:27;-7.70;99.90
21184;DHT22;18176;49.502;11.754;2022-12-18T23:37:28;-7.60;99.90
21184;DHT22;18176;49.502;11.754;2022-12-18T23:41:51;-7.60;99.90
21184;DHT22;18176;49.502;11.754;2022-12-18T23:45:52;-7.60;99.90
21184;DHT22;18176;49.502;11.754;2022-12-18T23:49:52;-7.60;99.90
21184;DHT22;18176;49.502;11.754;2022-12-18T23:53:53;-7.60;99.90
21184;DHT22;18176;49.502;11.754;2022-12-18T23:57:57;-7.60;99.90
